Weather at Sølenstua Airfield

Public forecast

Using degrees Celsius for public forecast. Weather courtesy of forecast.io.

Closest aviation weather report (METAR) to Sølenstua Airfield

Report is more than 6 hours old.

Closest report is Røros Airport, 45.8 nm (84.9 km) NNW.

2022/11/14 15:20 (retrieved 2 years ago)

ENRO 141520Z AUTO 00000KT 0350 R31/0600 FZFG VV002 M02/M03 Q1021

Closest aviation forecast (TAF) to Sølenstua Airfield

Forecast is more than 12 hours old.

Closest forecast is Trondheim Airport, Værnes, 99.8 nm (184.9 km) NNW.

2023/02/22 18:36 (retrieved 1 year ago)

TAF ENVA 221700Z 2218/2318 VRB05KT 9999 -RA SCT008 BKN015 BECMG 2221/2223 26012KT TEMPO 2220/2224 RA BKN012 BECMG 2300/2302 FEW020TCU SCT030 TEMPO 2301/2313 26015G25KT 1000 SHSN VV008 BECMG 2313/2316 12008KT